createdAt,value
2019-01-15T00:00:17.192Z,49.30
2019-01-15T00:02:45.643Z,49.40
2019-01-15T00:05:14.014Z,49.40
2019-01-15T00:07:42.566Z,49.40
2019-01-15T00:10:13.900Z,49.30
2019-01-15T00:12:42.207Z,49.50
2019-01-15T00:15:11.125Z,49.20
2019-01-15T00:17:39.443Z,49.30
2019-01-15T00:20:11.373Z,49.30
2019-01-15T00:22:39.658Z,49.20
2019-01-15T00:25:08.213Z,49.30
2019-01-15T00:27:36.763Z,49.50
2019-01-15T00:30:14.279Z,49.50
2019-01-15T00:32:42.634Z,49.30
2019-01-15T00:35:10.933Z,49.30
2019-01-15T00:37:39.466Z,49.30
2019-01-15T00:40:13.274Z,49.30
2019-01-15T00:42:41.562Z,49.30
2019-01-15T00:45:10.853Z,49.20
2019-01-15T00:47:39.141Z,49.00
2019-01-15T00:50:10.236Z,49.10
2019-01-15T00:52:38.522Z,49.00
2019-01-15T00:55:08.266Z,49.10
2019-01-15T00:57:36.855Z,49.30
2019-01-15T01:00:11.742Z,49.40
2019-01-15T01:02:40.061Z,49.40
2019-01-15T01:05:08.341Z,49.50
2019-01-15T01:07:36.699Z,49.40
2019-01-15T01:10:07.863Z,49.50
2019-01-15T01:12:36.197Z,49.50
2019-01-15T01:15:07.854Z,49.50
2019-01-15T01:17:36.391Z,49.50
2019-01-15T01:20:08.274Z,49.50
2019-01-15T01:22:36.813Z,49.60
2019-01-15T01:25:07.625Z,49.70
2019-01-15T01:27:36.166Z,49.50
2019-01-15T01:30:10.562Z,49.70
2019-01-15T01:32:38.855Z,49.60
2019-01-15T01:35:07.321Z,49.60
2019-01-15T01:37:35.899Z,49.60
2019-01-15T01:40:07.686Z,49.60
2019-01-15T01:42:36.243Z,49.60
2019-01-15T01:45:07.813Z,49.60
2019-01-15T01:47:36.374Z,49.70
2019-01-15T01:50:06.834Z,49.70
2019-01-15T01:52:35.134Z,49.80
2019-01-15T01:55:03.854Z,49.80
2019-01-15T01:57:32.142Z,49.70
2019-01-15T02:00:00.442Z,49.70
2019-01-15T02:02:28.728Z,49.70
2019-01-15T02:04:57.018Z,49.70
2019-01-15T02:07:25.320Z,49.70
2019-01-15T02:09:53.627Z,49.70
2019-01-15T02:12:22.158Z,49.70
2019-01-15T02:14:50.434Z,49.80
2019-01-15T02:17:18.750Z,49.80
2019-01-15T02:19:47.281Z,49.80
2019-01-15T02:22:15.821Z,49.90
2019-01-15T02:24:44.198Z,49.80
2019-01-15T02:27:13.314Z,49.90
2019-01-15T02:29:41.611Z,49.90
2019-01-15T02:32:09.911Z,49.90
2019-01-15T02:34:38.190Z,50.00
2019-01-15T02:37:06.746Z,50.00
2019-01-15T02:39:35.282Z,50.00
2019-01-15T02:42:03.819Z,50.00
2019-01-15T02:44:32.366Z,50.00
2019-01-15T02:47:00.916Z,50.00
2019-01-15T02:49:29.463Z,50.00
2019-01-15T02:51:57.749Z,50.10
2019-01-15T02:54:26.121Z,50.00
2019-01-15T02:56:54.654Z,50.00
2019-01-15T02:59:22.951Z,50.00
2019-01-15T03:01:51.473Z,50.00
2019-01-15T03:04:20.023Z,50.10
2019-01-15T03:06:48.325Z,50.10
2019-01-15T03:09:16.673Z,50.10
2019-01-15T03:11:44.978Z,50.20
2019-01-15T03:14:13.516Z,50.20
2019-01-15T03:16:41.818Z,50.20
2019-01-15T03:19:10.200Z,50.30
2019-01-15T03:21:38.491Z,50.30
2019-01-15T03:24:06.768Z,50.40
2019-01-15T03:26:35.057Z,50.40
2019-01-15T03:29:03.602Z,50.40
2019-01-15T03:31:31.955Z,50.60
2019-01-15T03:34:00.260Z,50.50
2019-01-15T03:36:28.554Z,50.60
2019-01-15T03:38:57.078Z,50.50
2019-01-15T03:41:25.377Z,50.60
2019-01-15T03:43:53.745Z,50.60
2019-01-15T03:46:22.022Z,50.60
2019-01-15T03:48:50.565Z,50.60
2019-01-15T03:51:19.111Z,50.60
2019-01-15T03:53:47.639Z,50.60
2019-01-15T03:56:15.956Z,50.60
2019-01-15T03:58:44.484Z,50.60
2019-01-15T04:01:13.079Z,50.60
2019-01-15T04:03:41.626Z,50.60
2019-01-15T04:06:10.162Z,50.60
2019-01-15T04:08:38.707Z,50.60
2019-01-15T04:11:07.246Z,50.70
2019-01-15T04:13:35.786Z,50.70
2019-01-15T04:16:04.314Z,50.80
2019-01-15T04:18:32.623Z,50.80
2019-01-15T04:21:00.966Z,50.90
2019-01-15T04:23:29.263Z,50.90
2019-01-15T04:25:57.573Z,51.00
2019-01-15T04:28:26.118Z,51.00
2019-01-15T04:30:54.642Z,51.00
2019-01-15T04:33:22.946Z,51.00
2019-01-15T04:35:51.477Z,51.00
2019-01-15T04:38:19.759Z,51.00
2019-01-15T04:40:48.058Z,51.00
2019-01-15T04:43:19.873Z,51.00
2019-01-15T04:45:46.607Z,51.00
2019-01-15T04:48:14.887Z,51.00
2019-01-15T04:50:43.442Z,51.10
2019-01-15T04:53:11.733Z,51.10
2019-01-15T04:55:40.029Z,51.00
2019-01-15T04:58:08.582Z,51.10
2019-01-15T05:00:37.133Z,51.10
2019-01-15T05:03:06.075Z,51.10
2019-01-15T05:05:34.604Z,51.20
2019-01-15T05:08:02.903Z,51.10
2019-01-15T05:10:31.194Z,51.10
2019-01-15T05:12:59.751Z,51.10
2019-01-15T05:15:28.086Z,51.10
2019-01-15T05:17:56.376Z,51.10
2019-01-15T05:20:24.652Z,51.10
2019-01-15T05:22:53.196Z,51.20
2019-01-15T05:25:22.034Z,51.10
2019-01-15T05:27:50.514Z,51.10
2019-01-15T05:30:26.541Z,51.20
2019-01-15T05:32:55.100Z,51.30
2019-01-15T05:35:23.618Z,51.30
2019-01-15T05:37:51.893Z,51.30
2019-01-15T05:40:20.188Z,51.30
2019-01-15T05:42:48.630Z,51.30
2019-01-15T05:45:23.385Z,51.30
2019-01-15T05:47:53.434Z,51.30
2019-01-15T05:50:23.366Z,50.30
2019-01-15T05:52:51.651Z,51.40
2019-01-15T05:55:19.956Z,51.40
2019-01-15T05:57:48.255Z,51.40
2019-01-15T06:00:17.092Z,51.30
2019-01-15T06:02:45.628Z,51.30
2019-01-15T06:05:14.268Z,51.30
2019-01-15T06:07:42.547Z,51.30
2019-01-15T06:10:14.326Z,51.30
2019-01-15T06:12:42.874Z,51.30
2019-01-15T06:15:14.659Z,51.30
2019-01-15T06:17:43.207Z,51.30
2019-01-15T06:20:19.027Z,51.30
2019-01-15T06:22:47.583Z,51.30
2019-01-15T06:25:15.876Z,51.30
2019-01-15T06:27:44.231Z,51.30
2019-01-15T06:30:15.317Z,51.30
2019-01-15T06:32:43.595Z,51.30
2019-01-15T06:35:11.965Z,51.30
2019-01-15T06:37:40.527Z,51.30
2019-01-15T06:40:12.366Z,51.30
2019-01-15T06:42:40.950Z,51.30
2019-01-15T06:45:21.011Z,51.30
2019-01-15T06:47:49.289Z,51.30
2019-01-15T06:50:17.592Z,51.30
2019-01-15T06:52:45.902Z,51.90
2019-01-15T06:55:19.590Z,51.20
2019-01-15T06:57:47.886Z,51.40
2019-01-15T07:00:28.191Z,51.30
2019-01-15T07:02:56.642Z,51.30
2019-01-15T07:05:25.182Z,51.40
2019-01-15T07:07:53.488Z,51.30
2019-01-15T07:10:36.102Z,51.40
2019-01-15T07:13:04.470Z,51.40
2019-01-15T07:15:32.754Z,51.40
2019-01-15T07:18:03.651Z,51.40
2019-01-15T07:20:31.921Z,51.40
2019-01-15T07:23:00.479Z,51.40
2019-01-15T07:25:31.708Z,51.40
2019-01-15T07:28:00.070Z,51.40
2019-01-15T07:30:43.634Z,51.40
2019-01-15T07:33:12.183Z,51.40
2019-01-15T07:35:40.722Z,51.40
2019-01-15T07:38:09.010Z,51.40
2019-01-15T07:40:37.556Z,51.50
2019-01-15T07:43:06.091Z,51.50
2019-01-15T07:45:34.651Z,51.50
2019-01-15T07:48:03.015Z,51.40
2019-01-15T07:50:31.290Z,51.40
2019-01-15T07:52:59.610Z,51.50
2019-01-15T07:55:30.674Z,51.60
2019-01-15T07:57:58.976Z,51.70
2019-01-15T08:00:27.254Z,51.60
2019-01-15T08:02:58.647Z,51.60
2019-01-15T08:05:28.265Z,51.60
2019-01-15T08:07:56.867Z,51.50
2019-01-15T08:10:25.289Z,51.40
2019-01-15T08:12:54.812Z,51.30
2019-01-15T08:15:30.578Z,51.20
2019-01-15T08:17:58.936Z,51.20
2019-01-15T08:20:27.214Z,51.10
2019-01-15T08:22:55.509Z,51.00
2019-01-15T08:25:24.119Z,50.90
2019-01-15T08:27:52.491Z,51.00
2019-01-15T08:30:26.019Z,51.00
2019-01-15T08:32:54.326Z,51.00
2019-01-15T08:35:22.854Z,51.10
2019-01-15T08:37:51.145Z,51.00
2019-01-15T08:40:19.425Z,51.00
2019-01-15T08:42:48.153Z,50.90
2019-01-15T08:45:17.731Z,50.80
2019-01-15T08:47:47.734Z,50.90
2019-01-15T08:50:27.346Z,50.80
2019-01-15T08:52:55.894Z,51.40
2019-01-15T08:55:24.173Z,50.80
2019-01-15T08:57:52.723Z,50.80
2019-01-15T09:00:21.273Z,50.80
2019-01-15T09:02:49.790Z,50.70
2019-01-15T09:05:18.094Z,50.90
2019-01-15T09:07:46.626Z,50.90
2019-01-15T09:10:16.306Z,51.00
2019-01-15T09:12:45.567Z,51.00
2019-01-15T09:15:19.047Z,51.00
2019-01-15T09:17:47.443Z,51.10
2019-01-15T09:20:19.858Z,51.10
2019-01-15T09:22:48.478Z,51.20
2019-01-15T09:25:17.084Z,51.10
2019-01-15T09:27:45.614Z,51.10
2019-01-15T09:30:19.746Z,51.10
2019-01-15T09:32:48.062Z,51.20
2019-01-15T09:35:16.595Z,51.20
2019-01-15T09:37:46.147Z,51.30
2019-01-15T09:40:17.834Z,51.20
2019-01-15T09:42:46.116Z,51.30
2019-01-15T09:45:19.119Z,51.40
2019-01-15T09:47:52.019Z,51.20
2019-01-15T09:50:20.319Z,51.10
2019-01-15T09:52:49.066Z,51.10
2019-01-15T09:55:17.373Z,51.20
2019-01-15T09:57:45.916Z,51.40
2019-01-15T10:00:19.146Z,51.40
2019-01-15T10:02:47.931Z,51.30
2019-01-15T10:05:16.463Z,51.30
2019-01-15T10:07:45.010Z,51.40
2019-01-15T10:10:17.476Z,51.40
2019-01-15T10:12:45.843Z,51.10
2019-01-15T10:15:16.812Z,51.40
2019-01-15T10:17:45.182Z,51.60
2019-01-15T10:20:15.018Z,51.60
2019-01-15T10:22:43.567Z,51.70
2019-01-15T10:25:13.489Z,51.90
2019-01-15T10:27:42.721Z,51.90
2019-01-15T10:30:37.087Z,51.90
2019-01-15T10:33:08.635Z,51.70
2019-01-15T10:35:57.770Z,51.70
2019-01-15T10:38:28.252Z,51.80
2019-01-15T10:40:57.778Z,51.80
2019-01-15T10:43:26.702Z,51.90
2019-01-15T10:45:55.351Z,52.00
2019-01-15T10:48:23.634Z,52.00
2019-01-15T10:50:52.170Z,52.10
2019-01-15T10:53:20.730Z,52.10
2019-01-15T10:55:49.269Z,52.10
2019-01-15T10:58:17.954Z,52.10
2019-01-15T11:00:46.566Z,52.00
2019-01-15T11:03:15.179Z,52.00
2019-01-15T11:05:43.468Z,52.00
2019-01-15T11:08:12.017Z,52.00
2019-01-15T11:10:40.367Z,52.00
2019-01-15T11:13:08.911Z,51.90
2019-01-15T11:15:43.071Z,52.10
2019-01-15T11:18:07.465Z,52.10
2019-01-15T11:20:36.000Z,52.00
2019-01-15T11:23:04.365Z,52.00
2019-01-15T11:25:32.655Z,52.00
2019-01-15T11:28:01.208Z,52.00
2019-01-15T11:30:29.497Z,51.90
2019-01-15T11:32:57.818Z,52.10
2019-01-15T11:35:26.102Z,52.20
2019-01-15T11:37:54.637Z,52.20
2019-01-15T11:40:23.190Z,52.20
2019-01-15T11:42:51.494Z,52.20
2019-01-15T11:45:20.209Z,52.10
2019-01-15T11:47:49.903Z,52.00
2019-01-15T11:50:19.878Z,52.00
2019-01-15T11:52:48.411Z,52.10
2019-01-15T11:55:16.800Z,52.00
2019-01-15T11:57:45.339Z,51.90
2019-01-15T12:00:29.957Z,51.80
2019-01-15T12:02:59.879Z,51.80
2019-01-15T12:05:46.106Z,51.70
2019-01-15T12:08:32.017Z,51.70
2019-01-15T12:11:04.697Z,51.70
2019-01-15T12:13:37.514Z,51.80
2019-01-15T12:16:07.698Z,51.80
2019-01-15T12:18:43.642Z,51.80
2019-01-15T12:21:13.567Z,51.90
2019-01-15T12:24:01.201Z,52.00
2019-01-15T12:26:36.681Z,52.10
2019-01-15T12:29:09.371Z,52.10
2019-01-15T12:31:39.605Z,52.00
2019-01-15T12:34:09.775Z,51.90
2019-01-15T12:36:42.539Z,51.90
2019-01-15T12:39:27.668Z,51.80
2019-01-15T12:42:00.466Z,51.80
2019-01-15T12:44:30.654Z,52.00
2019-01-15T12:47:00.619Z,52.00
2019-01-15T12:49:33.366Z,51.90
2019-01-15T12:52:19.811Z,51.80
2019-01-15T12:54:50.007Z,51.90
2019-01-15T12:57:22.856Z,51.70
2019-01-15T13:00:08.776Z,51.70
2019-01-15T13:02:41.591Z,51.80
2019-01-15T13:05:11.822Z,51.90
2019-01-15T13:07:44.803Z,51.90
2019-01-15T13:10:20.502Z,51.90
2019-01-15T13:13:05.398Z,52.00
2019-01-15T13:15:35.342Z,52.00
2019-01-15T13:18:14.268Z,52.10
2019-01-15T13:20:47.027Z,52.30
2019-01-15T13:23:23.124Z,52.30
2019-01-15T13:25:53.061Z,52.30
2019-01-15T13:28:25.842Z,52.30
2019-01-15T13:31:11.799Z,52.20
2019-01-15T13:33:44.810Z,52.20
2019-01-15T13:36:20.743Z,52.20
2019-01-15T13:39:06.730Z,52.10
2019-01-15T13:41:52.837Z,52.20
2019-01-15T13:44:28.443Z,52.10
2019-01-15T13:47:14.511Z,52.00
2019-01-15T13:50:00.601Z,52.10
2019-01-15T13:52:30.547Z,52.00
2019-01-15T13:55:18.700Z,52.00
2019-01-15T13:58:04.686Z,52.00
2019-01-15T14:00:43.168Z,51.80
2019-01-15T14:03:24.778Z,51.90
2019-01-15T14:06:03.672Z,51.90
2019-01-15T14:08:36.406Z,51.90
2019-01-15T14:11:22.963Z,52.10
2019-01-15T14:13:55.416Z,52.10
2019-01-15T14:16:41.206Z,52.20
2019-01-15T14:19:13.981Z,52.10
2019-01-15T14:22:00.063Z,52.30
2019-01-15T14:24:32.648Z,52.30
2019-01-15T14:27:14.632Z,52.30
2019-01-15T14:30:00.361Z,52.20
2019-01-15T14:32:39.231Z,52.20
2019-01-15T14:35:17.790Z,52.10
2019-01-15T14:37:53.696Z,52.10
2019-01-15T14:40:23.857Z,52.00
2019-01-15T14:42:56.706Z,52.30
2019-01-15T14:45:29.314Z,52.20
2019-01-15T14:48:08.447Z,52.20
2019-01-15T14:50:38.628Z,52.20
2019-01-15T14:53:17.371Z,52.30
2019-01-15T14:56:05.008Z,52.10
2019-01-15T14:58:43.679Z,52.30
2019-01-15T15:01:22.583Z,52.40
2019-01-15T15:04:04.621Z,52.80
2019-01-15T15:06:43.555Z,52.60
2019-01-15T15:09:29.385Z,52.50
2019-01-15T15:12:11.306Z,52.50
2019-01-15T15:14:57.268Z,52.60
2019-01-15T15:17:27.187Z,52.60
2019-01-15T15:19:57.138Z,52.50
2019-01-15T15:22:29.911Z,52.60
2019-01-15T15:25:11.855Z,52.50
2019-01-15T15:27:57.981Z,52.60
2019-01-15T15:30:36.923Z,52.60
2019-01-15T15:33:15.867Z,52.90
2019-01-15T15:35:46.086Z,52.80
2019-01-15T15:38:16.094Z,52.60
2019-01-15T15:40:54.920Z,52.50
2019-01-15T15:43:30.916Z,52.40
2019-01-15T15:46:11.011Z,52.40
2019-01-15T15:48:50.675Z,52.40
2019-01-15T15:51:38.567Z,52.30
2019-01-15T15:54:20.777Z,52.40
2019-01-15T15:56:56.691Z,52.40
2019-01-15T15:59:26.854Z,52.30
2019-01-15T16:02:12.818Z,52.40
2019-01-15T16:04:42.767Z,52.50
2019-01-15T16:07:12.967Z,52.40
2019-01-15T16:09:49.018Z,52.30
2019-01-15T16:12:30.903Z,52.30
2019-01-15T16:15:00.833Z,52.20
2019-01-15T16:17:33.225Z,52.00
2019-01-15T16:20:05.867Z,51.90
2019-01-15T16:22:53.783Z,51.80
2019-01-15T16:25:26.527Z,51.70
2019-01-15T16:28:14.516Z,51.70
2019-01-15T16:31:00.255Z,51.60
2019-01-15T16:33:33.279Z,51.80
2019-01-15T16:36:12.036Z,51.90
2019-01-15T16:38:56.758Z,52.00
2019-01-15T16:41:35.764Z,52.00
2019-01-15T16:47:17.739Z,52.20
2019-01-15T16:49:50.594Z,52.20
2019-01-15T16:52:36.103Z,52.20
2019-01-15T16:55:09.295Z,52.60
2019-01-15T16:57:55.688Z,52.20
2019-01-15T17:00:28.788Z,52.10
2019-01-15T17:02:59.030Z,52.30
2019-01-15T17:05:31.802Z,52.20
2019-01-15T17:08:07.390Z,52.30
2019-01-15T17:10:37.332Z,53.10
2019-01-15T17:13:22.591Z,53.10
2019-01-15T17:16:09.137Z,53.20
2019-01-15T17:18:39.356Z,53.10
2019-01-15T17:21:15.316Z,53.40
2019-01-15T17:23:47.996Z,53.60
2019-01-15T17:26:34.394Z,53.40
2019-01-15T17:29:07.485Z,53.40
2019-01-15T17:31:53.675Z,53.10
2019-01-15T17:34:23.630Z,53.00
2019-01-15T17:36:56.690Z,52.80
2019-01-15T17:39:27.010Z,52.70
2019-01-15T17:42:14.897Z,52.60
2019-01-15T17:44:56.745Z,52.70
2019-01-15T17:47:38.292Z,52.70
2019-01-15T17:50:16.673Z,52.90
2019-01-15T17:53:03.045Z,53.40
2019-01-15T17:55:39.018Z,52.80
2019-01-15T17:58:09.223Z,52.80
2019-01-15T18:00:45.179Z,52.80
2019-01-15T18:03:30.103Z,52.80
2019-01-15T18:06:00.381Z,52.90
2019-01-15T18:08:36.222Z,52.80
2019-01-15T18:11:09.515Z,52.90
2019-01-15T18:13:57.420Z,52.90
2019-01-15T18:16:33.510Z,53.10
2019-01-15T18:19:12.527Z,53.40
2019-01-15T18:21:45.150Z,52.90
2019-01-15T18:24:24.374Z,53.10
2019-01-15T18:27:06.654Z,52.80
2019-01-15T18:29:52.794Z,53.00
2019-01-15T18:32:41.205Z,53.10
2019-01-15T18:35:14.070Z,53.00
2019-01-15T18:37:59.288Z,53.00
2019-01-15T18:40:35.417Z,52.90
2019-01-15T18:43:18.370Z,53.00
2019-01-15T18:45:54.210Z,52.90
2019-01-15T18:48:33.118Z,52.90
2019-01-15T18:51:21.463Z,52.80
2019-01-15T18:53:51.700Z,53.10
2019-01-15T18:56:37.975Z,53.10
2019-01-15T18:59:26.148Z,52.80
2019-01-15T19:01:56.353Z,52.80
2019-01-15T19:04:26.308Z,52.80
2019-01-15T19:06:56.599Z,52.70
2019-01-15T19:09:29.516Z,52.80
2019-01-15T19:11:59.803Z,53.00
2019-01-15T19:14:46.207Z,52.80
2019-01-15T19:17:22.370Z,52.90
2019-01-15T19:19:52.311Z,53.00
2019-01-15T19:22:38.361Z,52.90
2019-01-15T19:25:11.214Z,52.70
2019-01-15T19:27:47.422Z,52.80
2019-01-15T19:30:24.099Z,52.80
2019-01-15T19:32:57.187Z,52.60
2019-01-15T19:35:39.793Z,52.70
2019-01-15T19:38:15.531Z,52.70
2019-01-15T19:40:45.771Z,52.80
2019-01-15T19:43:15.707Z,52.70
2019-01-15T19:45:46.026Z,52.70
2019-01-15T19:48:15.961Z,52.60
2019-01-15T19:50:46.269Z,52.70
2019-01-15T19:53:16.575Z,52.50
2019-01-15T19:55:46.800Z,52.70
2019-01-15T19:58:22.672Z,52.60
2019-01-15T20:01:04.816Z,52.40
2019-01-15T20:03:38.045Z,52.40
2019-01-15T20:06:23.334Z,52.40
2019-01-15T20:09:09.440Z,52.50
2019-01-15T20:11:54.803Z,52.40
2019-01-15T20:14:36.532Z,52.80
2019-01-15T20:17:23.299Z,52.60
2019-01-15T20:19:59.467Z,52.50
2019-01-15T20:22:47.164Z,52.40
2019-01-15T20:25:26.225Z,52.40
2019-01-15T20:27:56.156Z,52.40
2019-01-15T20:30:42.654Z,52.50
2019-01-15T20:33:28.015Z,52.50
2019-01-15T20:35:57.959Z,52.40
2019-01-15T20:38:34.004Z,52.60
2019-01-15T20:41:16.219Z,52.60
2019-01-15T20:43:52.358Z,52.60
2019-01-15T20:46:34.121Z,52.50
2019-01-15T20:49:20.173Z,52.40
2019-01-15T20:52:02.559Z,52.40
2019-01-15T20:54:35.733Z,52.30
2019-01-15T20:57:11.695Z,52.40
2019-01-15T20:59:41.628Z,52.40
2019-01-15T21:02:11.931Z,52.30
2019-01-15T21:04:44.385Z,52.30
2019-01-15T21:07:14.587Z,52.20
2019-01-15T21:09:59.442Z,52.30
2019-01-15T21:12:29.720Z,52.30
2019-01-15T21:15:16.147Z,52.00
2019-01-15T21:18:02.936Z,52.00
2019-01-15T21:20:49.439Z,52.00
2019-01-15T21:23:19.662Z,51.90
2019-01-15T21:25:49.891Z,52.00
2019-01-15T21:28:25.730Z,52.00
2019-01-15T21:31:04.708Z,52.10
2019-01-15T21:33:43.249Z,52.20
2019-01-15T21:36:25.275Z,52.30
2019-01-15T21:38:58.162Z,52.40
2019-01-15T21:41:39.886Z,52.30
2019-01-15T21:44:15.474Z,52.30
2019-01-15T21:46:51.360Z,52.10
2019-01-15T21:49:21.574Z,52.10
2019-01-15T21:51:51.526Z,52.00
2019-01-15T21:54:24.134Z,52.10
2019-01-15T21:57:08.806Z,52.10
2019-01-15T21:59:55.314Z,52.20
2019-01-15T22:02:41.512Z,52.10
2019-01-15T22:05:28.035Z,52.20
2019-01-15T22:07:58.278Z,52.20
2019-01-15T22:10:28.585Z,52.10
2019-01-15T22:13:14.645Z,52.10
2019-01-15T22:15:56.335Z,52.10
2019-01-15T22:18:28.955Z,52.10
2019-01-15T22:21:01.819Z,52.10
2019-01-15T22:23:48.090Z,52.00
2019-01-15T22:26:34.864Z,52.10
2019-01-15T22:29:21.543Z,52.10
2019-01-15T22:32:03.542Z,52.30
2019-01-15T22:34:49.762Z,52.30
2019-01-15T22:37:28.971Z,52.20
2019-01-15T22:40:08.003Z,52.00
2019-01-15T22:42:43.651Z,52.00
2019-01-15T22:45:31.823Z,51.90
2019-01-15T22:48:18.211Z,51.90
2019-01-15T22:50:48.134Z,52.00
2019-01-15T22:53:18.341Z,52.00
2019-01-15T22:55:56.974Z,52.00
2019-01-15T22:58:26.945Z,51.90
2019-01-15T23:01:09.034Z,51.90
2019-01-15T23:03:39.235Z,52.00
2019-01-15T23:06:09.517Z,52.40
2019-01-15T23:08:45.778Z,51.90
2019-01-15T23:11:25.215Z,51.70
2019-01-15T23:13:57.995Z,51.60
2019-01-15T23:16:30.779Z,51.60
2019-01-15T23:19:09.803Z,51.70
2019-01-15T23:21:49.150Z,51.50
2019-01-15T23:24:21.947Z,51.50
2019-01-15T23:26:51.896Z,51.40
2019-01-15T23:29:21.837Z,51.40
2019-01-15T23:31:58.231Z,51.50
2019-01-15T23:34:28.445Z,51.60
2019-01-15T23:37:16.510Z,51.60
2019-01-15T23:40:01.145Z,51.80
2019-01-15T23:42:46.524Z,51.70
2019-01-15T23:45:16.472Z,51.70
2019-01-15T23:50:37.268Z,51.60
2019-01-15T23:53:19.210Z,51.70
2019-01-15T23:56:05.583Z,51.60
2019-01-15T23:58:47.519Z,51.60
